Saint Francis, KS (67756)

5:22 PM CDT on September 03, 2015 (GMT -0500)
South Center on Hwy 36 | | Change Station
CLOSE
Current Station
Personal Weather Station
Location: St Francis, KS
Elevation: 3350 ft
Nearby Weather Stations
Active Advisory: Special Statement

Elev 3350 ft 39.77 °N, 101.80 °W | Updated 8 seconds ago

Clear
Clear
98.1 °F
Feels Like 94 °F
N
1.8
Wind Variable Wind from SSE
Gusts 4.9 mph

Today
High -- | Low -- °F
--% Chance of Precip.
Yesterday
High -- | Low -- °F
Precip. -- in
7:16 AM 8:15 PM
Waning Gibbous, 66% visible
Pressure 29.78 in
Visibility 7.0 miles
Clouds Clear
Heat Index 94 °F
Dew Point 43 °F
Humidity 15%
Rainfall 0.00 in
Snow Depth Not available.
UV 2.0 out of 12
Pollen 10.80 out of 12
Air Quality Not available.
Flu Activity Not available.
METAR KSYF 032215Z AUTO 20011KT 7SM CLR 36/03 A2978 RMK AO2 T03630025
Pressure 29.78 in
Visibility 7.0 miles
Clouds Clear
Heat Index 94 °F
Dew Point 43 °F
Humidity 15%
Rainfall 0.00 in
Snow Depth Not available.
UV 2.0 out of 12
Pollen 10.80 out of 12
Air Quality Not available.
Flu Activity Not available.
METAR KSYF 032215Z AUTO 20011KT 7SM CLR 36/03 A2978 RMK AO2 T03630025

10-Day Weather Forecast

×

Almanac

Astronomy

Sep. 03, 2015 Rise Set
Actual Time
Civil Twilight
Nautical Twilight
Astronomical Twilight
Moon
Length of Visible Light
Length of Day
Tomorrow will be .
, % of the Moon is Illuminated

Today's Extremes

State Highs State Lows

Community

WunderPhotos

Upload Photos

1,852,048 photos uploaded!

WunderBlogs® & News

Nearby

Air Quality

  Air Quality AQ Index Pollutant
Not available.

Snow Depth

Station Depth Elevation

Earthquake Activity

City Distance Mag. Time & Date
Minimum magnitude displayed is 2.5.

Coastal Water Temperatures

Place Temperature

Stations

Nearby Weather Stations

Station Location Temp. Windchill Dew Point Humidity Wind Precip. Elev Updated Type
                   
Special Statement
Statement as of 4:35 PM CDT on September 03, 2015

... Significant weather advisory for eastern Cheyenne County until 530
PM CDT...

At 434 PM CDT... Doppler radar was tracking a strong thunderstorm over
Bird City... or 12 miles east of St. Francis... moving north at 15 mph.

Dime size hail and wind gusts up to 50 mph will be possible with this
storm.

Locations impacted include...
Bird City and Wheeler.

Lat... Lon 3969 10142 3964 10164 3993 10181 4000 10147
time... Mot... loc 2134z 163deg 14kt 3974 10156


435 PM CDT Thu Sep 3 2015

... Significant weather advisory for eastern Cheyenne County until 530
PM CDT...

At 434 PM CDT... Doppler radar was tracking a strong thunderstorm over
Bird City... or 12 miles east of St. Francis... moving north at 15 mph.

Dime size hail and wind gusts up to 50 mph will be possible with this
storm.

Locations impacted include...
Bird City and Wheeler.

Lat... Lon 3969 10142 3964 10164 3993 10181 4000 10147
time... Mot... loc 2134z 163deg 14kt 3974 10156